Skip Navigation Links Skip Navigation Links

Current Weather

Chicago Midway, Chicago

For information only: do not use for flight planning or navigation.
Latest weather
Observation time Sunday, October 13, 2019 5:53 PM CDT
Local time Sunday, October 13, 2019 6:05 PM CDT
Flight conditions Visual Meteorological Conditions
Winds
Wind direction Northwest (310°)
Wind speed 14 mph
Visibility 10 mi.
Sky condition
Ceiling 6,000 ft. broken clouds
Cloud layer broken clouds 6,000 ft.
Cloud layer broken clouds 15,000 ft.
Temperature 51°F
Dewpoint 33°F
Altimeter 29.87 in.Hg
Derived measurements
Relative humidity 50%
Density altitude 251 ft.
Sea-level pressure 29.88 in.Hg
Remarks
System requires maintenance.
Automated weather observing station with precipitation discriminator.
METAR KMDW 132253Z 31012KT 10SM BKN060 BKN150 11/01 A2987 RMK AO2 SLP118 T01060006 $

Settings

Location code

InnerDrive.Weather 4.0.6770.0 Release CLR 4.0.30319.42000
Copyright ©2018 Inner Drive Technology. All rights reserved. Portions Copyright ©1986-2018 David Braverman.

Find weather

Site navigation


Skip Navigation Links

Place info

Page info

PayPal - The safer, easier way to pay online!

Return home.

Copyright ©2019 Inner Drive Technology. Purveyors of fine, hand-crafted computer software. Page printed 2019-10-13T23:05:10 UTC.